Latest Coastal Weather Observations for Cape Willoughby

IDS60701

Issued at 8:51 am CDT Tuesday 21 February 2017 (issued every 10 minutes, with the page automatically refreshed every 10 minutes)

About coastal observations | Map of coastal stations | Coastal observations for SA | Marine services | Other Formats
Station Details ID: 022803 Name: CAPE WILLOUGHBY Lat: -35.84 Lon: 138.13 Height: 55.0 m
Data from the previous 72 hours. | See also: Recent months at Cape Willoughby
Date/Time
CDT
Temp
°C
Wind Pressure Rain since
9am
mm
Weather Cloud Vis
km
Sea
Height
m
Swell
Dir  Spd
kts
Gust
kts
hPa Trend Height
m
Period
s
Dir
21/08:30am 15.9 NE 19 23 1018.8 - - - - - - - - -
21/08:00am 15.7 NE 16 20 1018.6 - - - - - - - - -
21/07:30am 15.3 NE 16 19 1018.3 - - - - - - - - -
21/07:00am 14.8 NE 14 19 1018.5 - - - - - - - - -
21/06:30am 15.0 NE 16 21 1018.0 - - - - - - - - -
21/06:00am 15.0 NE 15 18 1018.1 - - - - - - - - -
21/05:30am 15.4 NE 14 16 1018.1 - - - - - - - - -
21/05:00am 15.6 NE 13 17 1017.9 - - - - - - - - -
21/04:30am 15.8 ENE 13 17 1017.9 - - - - - - - - -
21/04:00am 15.6 E 12 15 1018.1 - - - - - - - - -
21/03:30am 15.5 ENE 11 13 1018.4 - - - - - - - - -
21/03:00am 15.6 E 11 13 1018.3 - 0.0 - - - - - - -
21/02:30am 15.6 E 11 13 1018.3 - - - - - - - - -
21/02:00am 15.4 E 10 14 1018.6 - - - - - - - - -
21/01:30am 15.3 E 10 12 1018.9 - - - - - - - - -
21/01:00am 15.3 E 8 12 1019.1 - - - - - - - - -
21/12:30am 15.3 ESE 8 12 1019.2 - - - - - - - - -
21/12:00am 15.2 ESE 8 10 1019.7 - - - - - - - - -
 
Date/Time
CDT
Temp
°C
Wind Pressure Rain since
9am
mm
Weather Cloud Vis
km
Sea
Height
m
Swell
Dir  Spd
kts
Gust
kts
hPa Trend Height
m
Period
s
Dir
20/11:30pm 15.2 SE 9 12 1019.9 - - - - - - - - -
20/11:00pm 15.3 SE 8 11 1020.0 - - - - - - - - -
20/10:30pm 15.4 SE 9 12 1019.8 - - - - - - - - -
20/10:00pm 15.3 SE 9 13 1019.9 - - - - - - - - -
20/09:30pm 15.6 SSE 8 12 1019.6 - - - - - - - - -
20/09:00pm 15.6 SSE 7 11 1019.3 - - - - - - - - -
20/08:30pm 15.6 SSE 8 11 1019.5 - - - - - - - - -
20/08:00pm 15.8 SE 8 11 1019.1 - - - - - - - - -
20/07:30pm 16.1 SSE 8 10 1018.9 - - - - - - - - -
20/07:00pm 16.3 SSE 8 11 1018.7 - - - - - - - - -
20/06:30pm 16.6 SSE 8 10 1018.5 - - - - - - - - -
20/06:00pm 16.6 SSE 9 12 1018.2 - - - - - - - - -
20/05:30pm 17.0 SSE 9 12 1017.8 - - - - - - - - -
20/05:00pm 16.7 SSE 10 13 1017.8 - - - - - - - - -
20/04:30pm 16.9 S 11 15 1017.9 - - - - - - - - -
20/04:00pm 17.1 S 10 14 1017.9 - - - - - - - - -
20/03:30pm 17.4 SSE 10 14 1018.1 - - - - - - - - -
 
Date/Time
CDT
Temp
°C
Wind Pressure Rain since
9am
mm
Weather Cloud Vis
km
Sea
Height
m
Swell
Dir  Spd
kts
Gust
kts
hPa Trend Height
m
Period
s
Dir
19/09:30pm 15.3 S 16 - 1016.6 - - - - - - - - -
19/09:00pm 15.1 S 18 - 1016.5 - - - - - - - - -
19/08:00pm 15.7 S 16 23 1016.1 - 0.0 - - - - - - -
19/07:30pm 16.0 SSW 16 22 1016.1 - 0.0 - - - - - - -
19/07:00pm 16.0 SSW 18 22 1015.9 - 0.0 - - - - - - -
19/06:30pm 15.8 SW 15 19 1016.0 - 0.0 - - - - - - -
19/06:00pm 14.8 WSW 16 23 1016.0 - 0.0 - - - - - - -
19/05:30pm 15.7 S 15 23 1015.7 - 0.0 - - - - - - -
19/05:22pm 15.7 S 15 25 1015.8 - 0.0 - - - - - - -
19/05:00pm 16.2 SSW 17 23 1015.7 - 0.0 - - - - - - -
19/04:30pm 16.4 SSW 18 25 1015.5 - 0.0 - - - - - - -
19/04:00pm 16.1 SSW 19 25 1015.8 - 0.0 - - - - - - -
19/03:30pm 17.1 SW 18 23 1016.0 - 0.0 - - - - - - -
19/03:00pm 16.4 SSW 14 21 1016.2 - 0.0 - - - - - - -
19/02:30pm 16.0 SSW 14 25 1016.3 - 0.0 - - - - - - -
19/02:00pm 16.2 SW 15 23 1016.4 - 0.0 - - - - - - -
19/01:30pm 17.4 SW 16 21 1016.5 - 0.0 - - - - - - -
19/01:00pm 17.4 SW 17 22 1016.6 - 0.0 - - - - - - -
19/12:30pm 17.2 SSW 17 22 1016.8 - 0.0 - - - - - - -
19/12:00pm 16.5 SSW 16 23 1016.8 - 0.0 - - - - - - -
19/11:39am 15.4 SSW 19 29 1016.8 - 0.0 - - - - - - -
19/11:30am 16.6 SSW 23 30 1016.7 - 0.0 - - - - - - -
19/11:00am 16.2 SSW 15 23 1016.9 - 0.0 - - - - - - -
19/10:41am 16.0 SSW 16 26 1016.9 - 0.0 - - - - - - -
19/10:30am 16.2 SSW 17 23 1017.0 - 0.0 - - - - - - -
19/10:00am 15.8 SSW 20 26 1016.8 - 0.0 - - - - - - -
19/09:30am 16.0 SSW 18 22 1016.7 - 0.0 - - - - - - -
19/09:00am 15.9 SSW 20 25 1016.5 - - - - - - - - -
19/08:30am 15.9 SW 16 23 1016.3 - - - - - - - - -
19/08:00am 15.3 SW 18 24 1016.4 - - - - - - - - -
19/07:30am 15.2 SSW 17 25 1016.1 - - - - - - - - -
19/07:00am 14.9 S 17 24 1015.9 - - - - - - - - -
19/06:46am 15.2 SW 18 29 1015.5 - - - - - - - - -
19/06:30am 15.4 SW 16 20 1015.7 - - - - - - - - -
19/06:00am 15.4 SSW 19 25 1015.6 - - - - - - - - -
19/05:30am 15.6 SSW 16 23 1015.4 - - - - - - - - -
19/05:00am 15.2 SSW 17 24 1015.3 - - - - - - - - -
19/04:30am 15.2 SSW 15 22 1015.6 - - - - - - - - -
19/04:00am 14.7 SSW 12 21 1015.7 - - - - - - - - -
19/03:30am 13.5 S 18 25 1015.9 - - - - - - - - -
19/03:12am 14.6 SSW 21 30 1015.3 - - - - - - - - -
19/03:00am 14.9 SW 22 29 1015.7 - 0.0 - - - - - - -
19/02:30am 14.9 SSW 22 28 1016.0 - - - - - - - - -
19/02:16am 15.3 SSW 16 27 1016.1 - - - - - - - - -
19/02:00am 15.3 S 16 25 1016.4 - - - - - - - - -
19/01:30am 14.9 S 11 16 1016.8 - - - - - - - - -
19/01:00am 15.1 SSW 18 24 1016.8 - - - - - - - - -
19/12:30am 15.2 SSW 17 22 1016.9 - - - - - - - - -
19/12:00am 15.0 SSW 18 23 1017.0 - - - - - - - - -
 
Date/Time
CDT
Temp
°C
Wind Pressure Rain since
9am
mm
Weather Cloud Vis
km
Sea
Height
m
Swell
Dir  Spd
kts
Gust
kts
hPa Trend Height
m
Period
s
Dir
18/11:30pm 15.0 SSW 13 21 1017.0 - - - - - - - - -
18/11:00pm 15.0 SSW 13 21 1016.9 - - - - - - - - -
18/10:30pm 14.9 SSW 13 21 1017.1 - - - - - - - - -
18/10:16pm 14.7 SSW 15 25 1017.2 - - - - - - - - -
18/10:00pm 15.3 SSW 15 22 1016.8 - - - - - - - - -
18/09:52pm 15.3 SSW 15 25 1016.9 - - - - - - - - -
18/09:30pm 15.1 SSW 16 24 1016.9 - - - - - - - - -
18/09:02pm 15.4 SSW 15 26 1016.8 - - - - - - - - -
18/09:00pm 15.4 SSW 16 26 1016.8 - 0.0 - - - - - - -
18/08:50pm 15.3 SSW 16 27 1016.6 - - - - - - - - -
18/08:30pm 15.4 SSW 15 22 1016.6 - - - - - - - - -
18/08:00pm 15.3 SSW 19 23 1016.4 - - - - - - - - -
18/07:30pm 15.4 SSW 19 25 1016.3 - - - - - - - - -
18/07:00pm 15.3 SSW 18 25 1016.0 - - - - - - - - -
18/06:30pm 15.6 S 14 22 1016.0 - - - - - - - - -
18/06:00pm 16.0 SSW 17 22 1015.8 - - - - - - - - -
18/05:30pm 16.3 SSW 19 23 1015.7 - - - - - - - - -
18/05:00pm 15.9 SSW 12 19 1015.9 - - - - - - - - -
18/04:30pm 15.3 S 16 23 1015.7 - - - - - - - - -
18/04:00pm 16.6 SSW 15 25 1015.9 - - - - - - - - -
18/03:30pm 14.9 SSW 18 26 1016.3 - - - - - - - - -
18/03:16pm 16.1 SSW 20 30 1016.0 - - - - - - - - -
18/03:00pm 16.1 SSW 18 24 1016.3 - - - - - - - - -
18/02:30pm 16.8 SSW 18 24 1016.2 - - - - - - - - -
18/02:01pm 16.5 SSW 15 25 1016.3 - - - - - - - - -
18/02:00pm 16.5 SSW 14 25 1016.2 - - - - - - - - -
18/01:00pm 13.1 SSW 21 30 1016.2 - - - - - - - - -
18/12:30pm 16.1 SSW 14 20 1016.2 - - - - - - - - -
18/12:00pm 14.5 SSW 16 22 1016.2 - - - - - - - - -
18/11:54am 13.5 SSW 20 25 1016.1 - - - - - - - - -
18/11:36am 15.1 SW 21 35 1015.5 - 0.2 - - - - - - -
18/11:33am 17.1 SW 17 29 1015.9 - 0.2 - - - - - - -
18/11:30am 16.8 SSW 15 23 1016.0 - 0.2 - - - - - - -
18/11:00am 15.6 SW 13 18 1015.9 - 0.2 - - - - - - -
18/10:30am 13.3 SSW 18 26 1016.0 - 0.2 - - - - - - -
18/10:14am 16.0 SW 15 26 1015.7 - 0.0 - - - - - - -
18/10:00am 15.3 SSW 12 18 1015.7 - 0.0 - - - - - - -
18/09:30am 12.8 WNW 12 20 1015.7 - 0.0 - - - - - - -
18/09:00am 14.7 SSW 13 18 1015.4 - - - - - - - - -

Other Formats:

Comma delimited format used in spreadsheet applications
http://www.bom.gov.au/fwo/IDS60701/IDS60701.94822.axf

JavaScript Object Notation format (JSON) in row-major order
http://www.bom.gov.au/fwo/IDS60701/IDS60701.94822.json